createdAt,value
2018-02-08T00:02:01.778Z,27.00
2018-02-08T00:04:29.208Z,24.80
2018-02-08T00:06:56.656Z,23.23
2018-02-08T00:09:24.093Z,24.40
2018-02-08T00:11:52.306Z,25.02
2018-02-08T00:14:19.730Z,21.98
2018-02-08T00:16:47.946Z,24.58
2018-02-08T00:19:15.377Z,25.33
2018-02-08T00:21:42.818Z,24.50
2018-02-08T00:24:11.201Z,23.90
2018-02-08T00:26:39.399Z,25.45
2018-02-08T00:29:06.837Z,26.52
2018-02-08T00:31:35.031Z,26.05
2018-02-08T00:34:02.490Z,24.17
2018-02-08T00:36:29.925Z,19.50
2018-02-08T00:38:58.150Z,26.00
2018-02-08T00:41:25.576Z,22.17
2018-02-08T00:43:53.008Z,24.48
2018-02-08T00:46:21.208Z,23.65
2018-02-08T00:48:48.643Z,25.00
2018-02-08T00:51:16.854Z,24.67
2018-02-08T00:53:44.309Z,24.33
2018-02-08T00:56:11.827Z,23.98
2018-02-08T00:58:40.045Z,22.52
2018-02-08T01:01:07.470Z,20.65
2018-02-08T01:03:34.904Z,21.95
2018-02-08T01:06:02.351Z,23.35
2018-02-08T01:08:29.799Z,22.90
2018-02-08T01:10:57.241Z,23.65
2018-02-08T01:13:24.706Z,20.95
2018-02-08T01:15:52.149Z,20.30
2018-02-08T01:18:19.600Z,20.50
2018-02-08T01:20:47.045Z,24.80
2018-02-08T01:23:14.501Z,22.73
2018-02-08T01:25:41.932Z,23.80
2018-02-08T01:28:10.151Z,24.55
2018-02-08T01:30:37.586Z,21.23
2018-02-08T01:33:05.023Z,24.15
2018-02-08T01:35:33.219Z,24.52
2018-02-08T01:38:00.671Z,20.98
2018-02-08T01:40:28.112Z,22.27
2018-02-08T01:42:56.601Z,20.45
2018-02-08T01:45:24.779Z,21.08
2018-02-08T01:47:52.215Z,22.60
2018-02-08T01:50:20.434Z,22.62
2018-02-08T01:52:47.864Z,19.77
2018-02-08T01:55:15.303Z,23.67
2018-02-08T01:57:43.522Z,21.60
2018-02-08T02:00:10.961Z,21.98
2018-02-08T02:02:38.406Z,23.12
2018-02-08T02:05:06.624Z,21.15
2018-02-08T02:07:34.060Z,21.70
2018-02-08T02:10:01.536Z,21.92
2018-02-08T02:12:28.967Z,20.55
2018-02-08T02:14:56.403Z,20.40
2018-02-08T02:17:24.604Z,21.42
2018-02-08T02:19:52.054Z,19.37
2018-02-08T02:22:20.239Z,21.95
2018-02-08T02:24:47.685Z,20.83
2018-02-08T02:27:15.136Z,24.05
2018-02-08T02:29:43.323Z,20.65
2018-02-08T02:32:10.770Z,20.08
2018-02-08T02:34:38.221Z,20.42
2018-02-08T02:37:06.425Z,22.37
2018-02-08T02:39:33.875Z,22.00
2018-02-08T02:42:01.295Z,22.10
2018-02-08T02:44:29.518Z,22.17
2018-02-08T02:46:56.957Z,22.55
2018-02-08T02:49:24.398Z,22.50
2018-02-08T02:51:52.591Z,23.67
2018-02-08T02:54:20.035Z,21.00
2018-02-08T02:56:47.474Z,21.90
2018-02-08T02:59:15.703Z,21.12
2018-02-08T03:01:43.147Z,20.35
2018-02-08T03:04:10.605Z,19.85
2018-02-08T03:06:38.041Z,21.80
2018-02-08T03:09:06.241Z,21.98
2018-02-08T03:11:33.682Z,20.25
2018-02-08T03:14:01.120Z,19.17
2018-02-08T03:16:29.327Z,20.55
2018-02-08T03:18:56.764Z,19.27
2018-02-08T03:21:24.205Z,19.80
2018-02-08T03:23:52.399Z,17.92
2018-02-08T03:26:19.843Z,20.48
2018-02-08T03:28:48.034Z,19.85
2018-02-08T03:31:25.384Z,21.27
2018-02-08T03:33:52.817Z,18.83
2018-02-08T03:36:20.279Z,19.75
2018-02-08T03:38:47.714Z,19.60
2018-02-08T03:41:15.186Z,18.65
2018-02-08T03:43:42.629Z,19.67
2018-02-08T03:46:10.085Z,23.35
2018-02-08T03:48:37.529Z,18.35
2018-02-08T03:51:04.980Z,19.17
2018-02-08T03:53:32.407Z,18.65
2018-02-08T03:56:00.611Z,20.35
2018-02-08T03:58:28.058Z,18.67
2018-02-08T04:00:55.500Z,20.10
2018-02-08T04:03:23.726Z,19.58
2018-02-08T04:05:51.175Z,19.10
2018-02-08T04:08:18.616Z,17.08
2018-02-08T04:10:46.047Z,17.42
2018-02-08T04:13:14.266Z,17.52
2018-02-08T04:15:41.722Z,19.98
2018-02-08T04:18:09.152Z,18.95
2018-02-08T04:20:36.591Z,17.70
2018-02-08T04:23:04.791Z,19.60
2018-02-08T04:25:32.245Z,19.48
2018-02-08T04:27:59.678Z,20.08
2018-02-08T04:30:27.883Z,19.05
2018-02-08T04:32:55.316Z,18.52
2018-02-08T04:35:23.542Z,17.35
2018-02-08T04:37:50.984Z,18.52
2018-02-08T04:40:30.284Z,17.40
2018-02-08T04:43:10.424Z,18.62
2018-02-08T04:45:49.824Z,16.40
2018-02-08T04:48:17.334Z,16.58
2018-02-08T04:50:44.781Z,17.67
2018-02-08T04:53:12.199Z,18.15
2018-02-08T04:55:39.646Z,19.00
2018-02-08T04:58:07.072Z,18.00
2018-02-08T05:00:35.276Z,16.15
2018-02-08T05:03:02.737Z,16.62
2018-02-08T05:05:30.167Z,16.80
2018-02-08T05:07:57.600Z,16.42
2018-02-08T05:10:25.812Z,18.98
2018-02-08T05:12:53.261Z,18.35
2018-02-08T05:15:20.706Z,18.40
2018-02-08T05:17:48.921Z,16.17
2018-02-08T05:20:16.347Z,19.65
2018-02-08T05:22:43.787Z,17.98
2018-02-08T05:25:11.998Z,18.40
2018-02-08T05:27:39.454Z,18.80
2018-02-08T05:30:06.898Z,18.08
2018-02-08T05:32:34.340Z,16.60
2018-02-08T05:35:02.563Z,19.10
2018-02-08T05:37:30.014Z,16.20
2018-02-08T05:39:57.461Z,17.20
2018-02-08T05:42:24.906Z,19.62
2018-02-08T05:44:52.354Z,18.65
2018-02-08T05:47:19.801Z,17.15
2018-02-08T05:49:48.020Z,17.50
2018-02-08T05:52:15.465Z,18.45
2018-02-08T05:54:42.899Z,17.30
2018-02-08T05:57:10.343Z,16.75
2018-02-08T05:59:38.543Z,17.58
2018-02-08T06:02:06.040Z,18.45
2018-02-08T06:04:33.420Z,17.48
2018-02-08T06:07:01.628Z,17.50
2018-02-08T06:09:29.060Z,15.35
2018-02-08T06:11:57.282Z,18.48
2018-02-08T06:14:24.729Z,17.80
2018-02-08T06:16:52.178Z,17.77
2018-02-08T06:19:19.618Z,16.73
2018-02-08T06:21:47.822Z,16.05
2018-02-08T06:24:15.321Z,15.90
2018-02-08T06:26:42.729Z,18.40
2018-02-08T06:29:10.179Z,17.27
2018-02-08T06:31:37.641Z,17.80
2018-02-08T06:34:05.070Z,19.08
2018-02-08T06:36:33.282Z,18.12
2018-02-08T06:39:00.735Z,18.37
2018-02-08T06:41:28.182Z,17.20
2018-02-08T06:43:55.649Z,15.57
2018-02-08T06:46:23.090Z,17.75
2018-02-08T06:48:50.543Z,18.35
2018-02-08T06:51:18.745Z,20.20
2018-02-08T06:53:46.191Z,18.55
2018-02-08T06:56:13.619Z,17.52
2018-02-08T06:58:41.898Z,18.52
2018-02-08T07:01:09.333Z,18.02
2018-02-08T07:03:36.905Z,17.55
2018-02-08T07:06:04.298Z,16.70
2018-02-08T07:08:31.775Z,16.33
2018-02-08T07:10:59.226Z,18.30
2018-02-08T07:13:26.665Z,16.80
2018-02-08T07:15:54.103Z,20.55
2018-02-08T07:18:22.312Z,18.80
2018-02-08T07:20:49.763Z,17.02
2018-02-08T07:23:17.204Z,15.98
2018-02-08T07:25:44.647Z,17.20
2018-02-08T07:28:12.859Z,17.48
2018-02-08T07:30:40.283Z,19.10
2018-02-08T07:33:07.738Z,18.37
2018-02-08T07:35:35.978Z,17.33
2018-02-08T07:38:03.372Z,17.75
2018-02-08T07:40:31.571Z,18.60
2018-02-08T07:42:59.008Z,19.98
2018-02-08T07:45:26.442Z,16.62
2018-02-08T07:47:54.653Z,17.42
2018-02-08T07:50:22.078Z,16.65
2018-02-08T07:52:50.296Z,17.00
2018-02-08T07:55:17.724Z,17.87
2018-02-08T07:57:45.154Z,17.05
2018-02-08T08:00:12.605Z,17.00
2018-02-08T08:02:40.023Z,17.42
2018-02-08T08:05:07.454Z,18.35
2018-02-08T08:07:34.904Z,17.30
2018-02-08T08:10:03.140Z,15.48
2018-02-08T08:12:30.556Z,17.15
2018-02-08T08:14:58.029Z,17.40
2018-02-08T08:17:25.466Z,16.45
2018-02-08T08:19:52.905Z,17.33
2018-02-08T08:22:21.123Z,17.77
2018-02-08T08:24:48.548Z,17.48
2018-02-08T08:27:15.984Z,17.73
2018-02-08T08:29:44.187Z,15.90
2018-02-08T08:32:11.642Z,17.23
2018-02-08T08:34:39.825Z,14.90
2018-02-08T08:37:07.257Z,16.77
2018-02-08T08:39:35.473Z,18.87
2018-02-08T08:42:02.903Z,19.02
2018-02-08T08:44:30.358Z,18.30
2018-02-08T08:46:57.795Z,17.80
2018-02-08T08:49:26.006Z,19.20
2018-02-08T08:51:53.428Z,20.70
2018-02-08T08:54:21.648Z,20.42
2018-02-08T08:56:49.102Z,19.00
2018-02-08T08:59:16.531Z,18.65
2018-02-08T09:01:43.965Z,18.87
2018-02-08T09:04:12.188Z,18.55
2018-02-08T09:06:39.623Z,19.25
2018-02-08T09:09:07.078Z,20.58
2018-02-08T09:11:34.508Z,19.25
2018-02-08T09:14:01.963Z,18.58
2018-02-08T09:16:29.407Z,18.87
2018-02-08T09:18:56.844Z,21.75
2018-02-08T09:21:24.306Z,23.90
2018-02-08T09:23:51.746Z,21.87
2018-02-08T09:26:19.220Z,21.40
2018-02-08T09:28:46.643Z,23.05
2018-02-08T09:31:14.092Z,21.87
2018-02-08T09:33:41.544Z,21.60
2018-02-08T09:36:09.003Z,24.63
2018-02-08T09:38:37.223Z,21.02
2018-02-08T09:41:04.682Z,21.25
2018-02-08T09:43:32.123Z,18.70
2018-02-08T09:45:59.591Z,18.05
2018-02-08T09:48:27.019Z,22.00
2018-02-08T09:50:54.465Z,20.00
2018-02-08T09:53:21.900Z,20.52
2018-02-08T09:55:49.359Z,19.50
2018-02-08T09:58:17.564Z,18.45
2018-02-08T10:00:45.021Z,21.00
2018-02-08T10:03:12.447Z,20.25
2018-02-08T10:05:40.716Z,18.67
2018-02-08T10:08:08.143Z,20.27
2018-02-08T10:10:35.613Z,20.25
2018-02-08T10:13:03.043Z,20.45
2018-02-08T10:15:30.513Z,23.52
2018-02-08T10:17:57.947Z,19.37
2018-02-08T10:20:25.400Z,19.73
2018-02-08T10:22:52.878Z,20.17
2018-02-08T10:25:21.063Z,20.17
2018-02-08T10:27:48.492Z,23.08
2018-02-08T10:30:15.941Z,20.08
2018-02-08T10:32:43.393Z,21.42
2018-02-08T10:35:10.844Z,22.08
2018-02-08T10:37:39.053Z,19.85
2018-02-08T10:40:07.316Z,22.25
2018-02-08T10:42:34.757Z,22.00
2018-02-08T10:45:02.219Z,21.92
2018-02-08T10:47:29.670Z,20.95
2018-02-08T10:49:57.123Z,22.30
2018-02-08T10:52:25.359Z,21.92
2018-02-08T10:54:52.797Z,21.65
2018-02-08T10:57:20.247Z,23.52
2018-02-08T10:59:47.687Z,20.98
2018-02-08T11:02:15.131Z,22.85
2018-02-08T11:04:42.567Z,22.25
2018-02-08T11:07:10.775Z,23.65
2018-02-08T11:09:38.215Z,23.85
2018-02-08T11:12:06.437Z,22.27
2018-02-08T11:14:33.894Z,27.13
2018-02-08T11:19:35.412Z,22.95
2018-02-08T11:22:03.640Z,21.87
2018-02-08T11:24:31.836Z,24.92
2018-02-08T11:26:59.284Z,23.12
2018-02-08T11:29:26.730Z,25.60
2018-02-08T11:31:54.173Z,23.40
2018-02-08T11:34:21.629Z,24.85
2018-02-08T11:36:49.074Z,22.80
2018-02-08T11:39:16.507Z,23.60
2018-02-08T11:41:44.761Z,25.35
2018-02-08T11:44:12.204Z,24.30
2018-02-08T11:46:39.652Z,24.20
2018-02-08T11:49:07.877Z,24.58
2018-02-08T11:51:36.092Z,22.50
2018-02-08T11:54:03.537Z,26.12
2018-02-08T11:56:31.009Z,25.37
2018-02-08T11:58:58.459Z,24.60
2018-02-08T12:01:25.931Z,25.20
2018-02-08T12:03:53.374Z,25.25
2018-02-08T12:06:20.837Z,23.87
2018-02-08T12:08:49.037Z,25.60
2018-02-08T12:11:16.510Z,27.25
2018-02-08T12:13:43.949Z,27.67
2018-02-08T12:16:11.392Z,27.27
2018-02-08T12:18:38.852Z,23.92
2018-02-08T12:21:06.290Z,26.35
2018-02-08T12:23:33.728Z,23.80
2018-02-08T12:26:01.175Z,25.00
2018-02-08T12:28:29.369Z,26.50
2018-02-08T12:30:56.820Z,24.13
2018-02-08T12:33:24.297Z,26.92
2018-02-08T12:35:51.746Z,26.10
2018-02-08T12:38:19.223Z,25.70
2018-02-08T12:40:46.655Z,24.90
2018-02-08T12:43:14.108Z,24.15
2018-02-08T12:45:41.540Z,24.10
2018-02-08T12:48:09.755Z,26.60
2018-02-08T12:50:37.209Z,25.90
2018-02-08T12:53:04.645Z,23.63
2018-02-08T12:55:32.079Z,25.98
2018-02-08T12:58:00.315Z,24.55
2018-02-08T13:00:28.536Z,28.97
2018-02-08T13:02:56.734Z,25.57
2018-02-08T13:05:24.176Z,26.43
2018-02-08T13:07:52.371Z,23.50
2018-02-08T13:10:19.807Z,25.77
2018-02-08T13:12:47.255Z,25.60
2018-02-08T13:15:15.460Z,25.17
2018-02-08T13:17:42.913Z,25.67
2018-02-08T13:20:10.354Z,26.73
2018-02-08T13:22:38.602Z,27.87
2018-02-08T13:25:06.039Z,27.50
2018-02-08T13:27:33.503Z,25.17
2018-02-08T13:30:00.936Z,27.00
2018-02-08T13:32:28.375Z,26.77
2018-02-08T13:34:55.827Z,24.10
2018-02-08T13:37:24.043Z,24.90
2018-02-08T13:40:06.374Z,24.57
2018-02-08T13:42:33.805Z,24.80
2018-02-08T13:45:01.271Z,24.20
2018-02-08T13:47:43.637Z,23.83
2018-02-08T13:50:16.881Z,26.60
2018-02-08T13:53:01.997Z,28.50
2018-02-08T13:55:29.888Z,27.77
2018-02-08T13:58:18.027Z,26.50
2018-02-08T14:00:55.362Z,29.30
2018-02-08T14:03:22.802Z,23.97
2018-02-08T14:05:50.236Z,28.50
2018-02-08T14:08:17.667Z,26.63
2018-02-08T14:10:45.124Z,26.93
2018-02-08T14:13:12.552Z,25.80
2018-02-08T14:15:40.790Z,25.77
2018-02-08T14:18:08.686Z,25.80
2018-02-08T14:20:36.909Z,27.67
2018-02-08T14:23:04.341Z,27.50
2018-02-08T14:25:32.548Z,24.50
2018-02-08T14:27:59.992Z,24.23
2018-02-08T14:30:27.446Z,23.13
2018-02-08T14:32:54.877Z,24.40
2018-02-08T14:35:23.099Z,27.27
2018-02-08T14:37:50.529Z,26.57
2018-02-08T14:40:17.975Z,22.70
2018-02-08T14:42:46.188Z,24.40
2018-02-08T14:45:13.649Z,24.70
2018-02-08T14:47:41.073Z,26.00
2018-02-08T14:50:08.547Z,23.40
2018-02-08T14:52:35.985Z,23.60
2018-02-08T14:55:03.443Z,23.33
2018-02-08T14:57:31.659Z,23.90
2018-02-08T14:59:59.126Z,23.97
2018-02-08T15:02:26.578Z,21.47
2018-02-08T15:04:54.032Z,23.20
2018-02-08T15:07:21.477Z,25.10
2018-02-08T15:09:48.935Z,25.83
2018-02-08T15:12:16.395Z,21.37
2018-02-08T15:14:43.853Z,25.07
2018-02-08T15:17:11.302Z,25.75
2018-02-08T15:19:38.766Z,24.10
2018-02-08T15:22:06.207Z,22.23
2018-02-08T15:24:33.648Z,22.77
2018-02-08T15:27:01.874Z,23.50
2018-02-08T15:29:30.076Z,23.40
2018-02-08T15:31:57.560Z,19.73
2018-02-08T15:34:25.796Z,23.00
2018-02-08T15:36:53.255Z,24.40
2018-02-08T15:39:20.711Z,24.90
2018-02-08T15:41:48.153Z,25.87
2018-02-08T15:44:15.606Z,24.87
2018-02-08T15:46:43.058Z,23.13
2018-02-08T15:49:10.493Z,23.50
2018-02-08T15:51:37.947Z,24.13
2018-02-08T15:54:05.381Z,25.20
2018-02-08T15:56:33.597Z,25.13
2018-02-08T15:59:01.031Z,25.77
2018-02-08T16:01:28.460Z,24.00
2018-02-08T16:03:56.663Z,25.40
2018-02-08T16:06:24.130Z,23.38
2018-02-08T16:08:51.571Z,24.73
2018-02-08T16:11:19.022Z,25.65
2018-02-08T16:13:46.458Z,27.13
2018-02-08T16:16:13.918Z,26.03
2018-02-08T16:18:42.147Z,25.25
2018-02-08T16:21:09.603Z,24.70
2018-02-08T16:23:37.040Z,23.60
2018-02-08T16:26:04.498Z,27.27
2018-02-08T16:28:31.945Z,25.90
2018-02-08T16:30:59.400Z,23.52
2018-02-08T16:33:26.827Z,23.63
2018-02-08T16:35:54.268Z,26.27
2018-02-08T16:38:21.722Z,25.80
2018-02-08T16:40:49.169Z,27.05
2018-02-08T16:43:16.616Z,26.70
2018-02-08T16:45:44.060Z,25.50
2018-02-08T16:48:11.507Z,24.30
2018-02-08T16:50:39.011Z,25.50
2018-02-08T16:53:06.451Z,25.88
2018-02-08T16:55:33.914Z,25.20
2018-02-08T16:58:01.389Z,27.77
2018-02-08T17:00:28.831Z,25.97
2018-02-08T17:02:56.285Z,25.83
2018-02-08T17:05:23.747Z,26.65
2018-02-08T17:07:51.205Z,27.75
2018-02-08T17:10:18.660Z,25.85
2018-02-08T17:12:46.115Z,26.60
2018-02-08T17:15:13.558Z,28.65
2018-02-08T17:17:41.022Z,29.23
2018-02-08T17:20:08.472Z,25.80
2018-02-08T17:22:35.921Z,28.25
2018-02-08T17:25:03.362Z,28.40
2018-02-08T17:27:30.799Z,29.42
2018-02-08T17:29:59.013Z,25.23
2018-02-08T17:32:26.467Z,28.58
2018-02-08T17:34:54.142Z,30.30
2018-02-08T17:37:21.679Z,27.52
2018-02-08T17:39:49.176Z,29.23
2018-02-08T17:42:16.663Z,27.85
2018-02-08T17:44:44.098Z,28.27
2018-02-08T17:47:11.562Z,30.67
2018-02-08T17:49:39.012Z,27.13
2018-02-08T17:52:06.488Z,26.98
2018-02-08T17:54:33.966Z,24.33
2018-02-08T17:57:02.184Z,25.83
2018-02-08T17:59:29.627Z,26.77
2018-02-08T18:01:57.075Z,26.50
2018-02-08T18:04:24.522Z,23.02
2018-02-08T18:06:51.981Z,24.73
2018-02-08T18:09:19.424Z,26.95
2018-02-08T18:11:47.678Z,27.60
2018-02-08T18:14:15.143Z,28.60
2018-02-08T18:16:42.578Z,26.50
2018-02-08T18:19:10.030Z,28.98
2018-02-08T18:21:37.478Z,28.75
2018-02-08T18:24:04.936Z,27.42
2018-02-08T18:26:32.371Z,27.15
2018-02-08T18:28:59.820Z,25.73
2018-02-08T18:31:27.260Z,27.33
2018-02-08T18:33:55.482Z,28.05
2018-02-08T18:36:22.912Z,27.13
2018-02-08T18:38:50.427Z,28.23
2018-02-08T18:41:17.972Z,27.90
2018-02-08T18:43:45.428Z,26.83
2018-02-08T18:46:12.866Z,27.95
2018-02-08T18:48:40.326Z,27.52
2018-02-08T18:51:07.765Z,29.42
2018-02-08T18:53:35.216Z,33.50
2018-02-08T18:56:02.656Z,32.08
2018-02-08T18:58:30.888Z,26.87
2018-02-08T19:00:58.390Z,30.10
2018-02-08T19:03:26.598Z,26.85
2018-02-08T19:05:54.055Z,29.08
2018-02-08T19:08:21.859Z,29.30
2018-02-08T19:10:49.288Z,31.45
2018-02-08T19:13:16.758Z,29.90
2018-02-08T19:15:44.202Z,27.30
2018-02-08T19:18:11.653Z,28.30
2018-02-08T19:20:39.107Z,26.62
2018-02-08T19:23:06.585Z,26.62
2018-02-08T19:25:34.040Z,26.58
2018-02-08T19:28:01.515Z,24.30
2018-02-08T19:30:28.982Z,25.98
2018-02-08T19:32:56.450Z,25.98
2018-02-08T19:35:24.761Z,26.58
2018-02-08T19:37:52.310Z,28.10
2018-02-08T19:40:19.769Z,28.62
2018-02-08T19:42:47.231Z,29.63
2018-02-08T19:45:14.670Z,29.58
2018-02-08T19:47:42.891Z,38.33
2018-02-08T19:50:10.343Z,35.63
2018-02-08T19:52:37.800Z,32.08
2018-02-08T19:55:05.282Z,33.75
2018-02-08T19:57:32.741Z,34.10
2018-02-08T20:00:00.225Z,28.95
2018-02-08T20:02:28.514Z,29.12
2018-02-08T20:04:56.836Z,28.45
2018-02-08T20:07:24.284Z,28.70
2018-02-08T20:09:51.754Z,30.40
2018-02-08T20:12:19.243Z,31.60
2018-02-08T20:15:03.518Z,27.70
2018-02-08T20:17:30.960Z,31.23
2018-02-08T20:19:59.336Z,28.23
2018-02-08T20:22:27.650Z,29.50
2018-02-08T20:24:55.139Z,28.48
2018-02-08T20:27:22.594Z,27.37
2018-02-08T20:29:50.055Z,29.15
2018-02-08T20:32:17.572Z,27.50
2018-02-08T20:34:45.777Z,26.52
2018-02-08T20:37:13.221Z,28.65
2018-02-08T20:39:40.673Z,29.15
2018-02-08T20:42:08.260Z,28.20
2018-02-08T20:44:35.708Z,24.73
2018-02-08T20:47:03.163Z,25.17
2018-02-08T20:49:30.629Z,32.17
2018-02-08T20:51:58.098Z,32.47
2018-02-08T20:54:25.553Z,26.85
2018-02-08T20:56:53.006Z,26.67
2018-02-08T20:59:20.479Z,29.35
2018-02-08T21:01:47.947Z,27.13
2018-02-08T21:04:15.402Z,27.95
2018-02-08T21:06:42.852Z,32.65
2018-02-08T21:09:10.337Z,33.90
2018-02-08T21:11:38.564Z,29.58
2018-02-08T21:14:06.014Z,30.10
2018-02-08T21:16:33.482Z,28.85
2018-02-08T21:19:00.953Z,27.70
2018-02-08T21:21:28.418Z,28.62
2018-02-08T21:23:55.877Z,30.08
2018-02-08T21:26:23.324Z,31.42
2018-02-08T21:28:50.770Z,31.83
2018-02-08T21:31:18.236Z,31.45
2018-02-08T21:33:45.687Z,30.58
2018-02-08T21:36:13.130Z,29.75
2018-02-08T21:38:40.573Z,32.00
2018-02-08T21:41:08.046Z,34.55
2018-02-08T21:43:35.503Z,30.17
2018-02-08T21:46:02.962Z,32.05
2018-02-08T21:48:30.414Z,27.30
2018-02-08T21:50:57.874Z,28.42
2018-02-08T21:53:25.325Z,32.17
2018-02-08T21:55:52.786Z,31.60
2018-02-08T21:58:20.221Z,30.23
2018-02-08T22:00:47.674Z,28.38
2018-02-08T22:03:15.123Z,29.05
2018-02-08T22:05:43.345Z,28.55
2018-02-08T22:08:10.780Z,25.98
2018-02-08T22:10:38.216Z,29.02
2018-02-08T22:13:05.665Z,28.15
2018-02-08T22:15:33.889Z,30.73
2018-02-08T22:18:01.326Z,29.08
2018-02-08T22:20:28.793Z,30.73
2018-02-08T22:22:56.273Z,29.77
2018-02-08T22:25:23.728Z,26.10
2018-02-08T22:27:51.181Z,30.70
2018-02-08T22:30:18.638Z,32.00
2018-02-08T22:32:46.111Z,28.62
2018-02-08T22:35:13.554Z,28.73
2018-02-08T22:37:40.996Z,29.55
2018-02-08T22:40:08.450Z,30.30
2018-02-08T22:42:35.891Z,28.50
2018-02-08T22:45:03.337Z,29.83
2018-02-08T22:47:31.537Z,30.33
2018-02-08T22:49:58.972Z,30.10
2018-02-08T22:52:26.415Z,28.30
2018-02-08T22:54:54.624Z,27.40
2018-02-08T22:57:22.079Z,29.98
2018-02-08T22:59:49.512Z,30.40
2018-02-08T23:02:16.948Z,27.92
2018-02-08T23:04:45.164Z,30.33
2018-02-08T23:07:12.612Z,31.85
2018-02-08T23:09:40.048Z,32.15
2018-02-08T23:12:08.259Z,27.17
2018-02-08T23:14:35.687Z,28.55
2018-02-08T23:17:03.891Z,24.87
2018-02-08T23:19:31.327Z,29.33
2018-02-08T23:21:58.787Z,27.17
2018-02-08T23:24:26.224Z,29.65
2018-02-08T23:26:54.432Z,28.80
2018-02-08T23:29:21.866Z,28.60
2018-02-08T23:31:50.076Z,26.70
2018-02-08T23:34:17.518Z,27.90
2018-02-08T23:36:44.957Z,26.45
2018-02-08T23:39:13.161Z,28.75
2018-02-08T23:41:40.606Z,31.20
2018-02-08T23:44:08.032Z,30.27
2018-02-08T23:46:36.254Z,27.40
2018-02-08T23:49:03.689Z,29.92
2018-02-08T23:51:31.131Z,27.62
2018-02-08T23:53:59.393Z,26.65
2018-02-08T23:56:26.787Z,30.02
2018-02-08T23:58:54.220Z,28.45
